Monday, December 18, 2017, 3:35 PM EST
Back to Local

KAGC, Pittsburgh Allegheny Cty.

Location: West Mifflin, PA, United States Lat: 40.35
Local Time: 3:35 PM EST (20:35 GMT) Lon: -79.917
Time Zone: US/Eastern Elev: 1253 ft

Show me the last for .
Show Decoded

2017-12-18 14:53 METAR KAGC 181953Z 23012G21KT 10SM OVC009 06/03 A2996 RMK AO2 SLP158 T00560033 =
2017-12-18 14:48 METAR KAGC 181948Z 23011KT 10SM OVC009 06/03 A2996 RMK AO2 =
2017-12-18 14:09 METAR KAGC 181909Z 23009G17KT 10SM OVC010 06/03 A2996 RMK AO2 CIG 008V013
                 T00560033 =
2017-12-18 13:53 METAR KAGC 181853Z 22010KT 8SM OVC009 06/03 A2996 RMK AO2 CIG 008V013 SLP159
                 T00560028 =
2017-12-18 12:53 METAR KAGC 181753Z 21010KT 4SM BR OVC006 04/03 A2998 RMK AO2 SLP165 T00440028
                 10044 20022 58023 =
2017-12-18 11:53 METAR KAGC 181653Z 22007KT 7SM OVC008 04/02 A3001 RMK AO2 SLP175 T00440017 =
2017-12-18 10:53 METAR KAGC 181553Z 20007KT 7SM OVC007 04/02 A3003 RMK AO2 SLP185 T00390017 =
2017-12-18 09:53 METAR KAGC 181453Z 20009KT 7SM OVC009 03/01 A3005 RMK AO2 SLP190 T00330011 58003
                 =
2017-12-18 09:37 METAR KAGC 181437Z 21007KT 9SM OVC009 03/01 A3006 RMK AO2 T00330011 =
2017-12-18 09:28 METAR KAGC 181428Z 21008KT 10SM BKN042 03/01 A3005 RMK AO2 T00330006 =
2017-12-18 09:01 METAR KAGC 181401Z 21008KT 10SM BKN010 OVC043 03/01 A3006 RMK AO2 T00280006 =
2017-12-18 08:53 METAR KAGC 181353Z 21008KT 10SM SCT010 OVC043 03/01 A3006 RMK AO2 SLP192
                 T00280006 =
2017-12-18 07:53 METAR KAGC 181253Z 19010KT 10SM OVC044 02/00 A3005 RMK AO2 SLP191 T00220000 =
2017-12-18 06:53 METAR KAGC 181153Z 19007KT 10SM OVC044 02/M01 A3006 RMK AO2 SLP194 70009
                 T00221006 10028 20017 56002 =
2017-12-18 05:53 METAR KAGC 181053Z 19007KT 10SM OVC048 02/M01 A3006 RMK AO2 SLP194 T00221011 =
2017-12-18 04:53 METAR KAGC 180953Z 18007KT 10SM BKN055 02/M02 A3005 RMK AO2 SLP192 T00171017 =
2017-12-18 03:53 METAR KAGC 180853Z 19006KT 10SM OVC060 02/M01 A3006 RMK AO2 SLP194 T00221011
                 56006 =
2017-12-18 02:53 METAR KAGC 180753Z 18006KT 10SM OVC070 02/M01 A3007 RMK AO2 SLP195 T00221011 =
2017-12-18 01:53 METAR KAGC 180653Z 18005KT 10SM OVC070 02/M01 A3006 RMK AO2 SLP194 T00221011 =
2017-12-18 00:53 METAR KAGC 180553Z 20006KT 10SM FEW050 OVC070 03/M01 A3008 RMK AO2 SLP200
                 T00281011 10028 20017 50001 =
2017-12-17 23:53 METAR KAGC 180453Z 19007KT 10SM BKN043 OVC070 03/M01 A3009 RMK AO2 SLP203
                 T00281011 400391011 =
2017-12-17 22:53 METAR KAGC 180353Z 20005KT 10SM OVC060 03/M01 A3009 RMK AO2 SLP203 T00281011 =
2017-12-17 21:53 METAR KAGC 180253Z 18007KT 10SM OVC055 02/M01 A3008 RMK AO2 SLP200 T00221006
                 58011 =
2017-12-17 20:53 METAR KAGC 180153Z 17008KT 9SM BKN055 OVC075 02/00 A3010 RMK AO2 SLP208
                 T00220000 =
2017-12-17 19:53 METAR KAGC 180053Z 17006KT 9SM SCT055 OVC070 02/00 A3011 RMK AO2 SLP214
                 T00170000 =
2017-12-17 18:53 METAR KAGC 172353Z 16005KT 5SM BR BKN036 BKN050 OVC055 02/01 A3011 RMK AO2
                 RAE32UPB32E40 SLP212 P0002 60009 T00170006 10039 20017 58005 =
2017-12-17 17:53 METAR KAGC 172253Z 20004KT 6SM -RA BR OVC041 02/00 A3013 RMK AO2 SLP218 P0004
                 T00220000 =
2017-12-17 16:53 METAR KAGC 172153Z 18005KT 7SM -RA OVC048 03/M01 A3013 RMK AO2 RAB08 SLP219
                 P0003 T00281006 =
2017-12-17 15:53 METAR KAGC 172053Z 18005KT 10SM OVC085 04/M02 A3013 RMK AO2 SLP216 T00391022
                 55004 =

Support USWX by starting your Amazon purchase here.